Time;durP1;ratioP1;P1;durP2;ratioP2;P2;SDS_P1;SDS_P2;PMS_P1;PMS_P2;Temp;Humidity;BMP_temperature;BMP_pressure;BME280_temperature;BME280_humidity;BME280_pressure;Samples;Min_cycle;Max_cycle;Signal;HPM_P1;HPM_P2
2022/05/08 00:01:06;;;;;;;15.23;8.43;;;;;;;;;;5003735;28;20065;-67
2022/05/08 00:03:35;;;;;;;15.13;7.75;;;;;;;;;;5011163;28;20137;-67
2022/05/08 00:06:10;;;;;;;18.95;8.77;;;;;;;;;;5011319;28;20042;-67
2022/05/08 00:08:40;;;;;;;14.75;8.38;;;;;;;;;;5002505;28;20042;-67
2022/05/08 00:11:08;;;;;;;15.88;8.13;;;;;;;;;;5018928;28;20120;-67
2022/05/08 00:13:37;;;;;;;16.80;7.53;;;;;;;;;;5032879;28;20042;-67
2022/05/08 00:16:09;;;;;;;14.50;7.32;;;;;;;;;;5032234;28;20076;-68
2022/05/08 00:18:37;;;;;;;12.98;7.18;;;;;;;;;;5020914;28;20056;-67
2022/05/08 00:21:08;;;;;;;10.27;6.60;;;;;;;;;;5027128;28;20513;-70
2022/05/08 00:23:37;;;;;;;13.38;7.45;;;;;;;;;;5024352;28;21085;-67
2022/05/08 00:26:09;;;;;;;14.25;8.00;;;;;;;;;;5015393;28;20136;-69
2022/05/08 00:28:38;;;;;;;14.40;7.95;;;;;;;;;;5026294;28;20081;-68
2022/05/08 00:31:09;;;;;;;13.02;7.70;;;;;;;;;;5018869;28;20073;-67
2022/05/08 00:33:38;;;;;;;14.10;7.95;;;;;;;;;;5031336;28;20473;-67
2022/05/08 00:36:07;;;;;;;14.63;7.90;;;;;;;;;;5031701;28;20050;-67
2022/05/08 00:38:35;;;;;;;14.52;7.65;;;;;;;;;;5028868;28;20144;-67
2022/05/08 00:41:06;;;;;;;14.30;8.35;;;;;;;;;;5030303;28;20474;-68
2022/05/08 00:43:38;;;;;;;14.88;8.18;;;;;;;;;;5031608;28;20564;-67
2022/05/08 00:46:07;;;;;;;14.95;8.05;;;;;;;;;;5031833;28;20045;-68
2022/05/08 00:48:36;;;;;;;13.85;7.97;;;;;;;;;;5031600;28;20053;-67
2022/05/08 00:51:09;;;;;;;14.82;8.10;;;;;;;;;;5030538;28;20128;-67
2022/05/08 00:53:38;;;;;;;14.20;7.80;;;;;;;;;;5028401;28;20071;-67
2022/05/08 00:56:08;;;;;;;15.13;8.40;;;;;;;;;;5032433;28;20144;-68
2022/05/08 00:58:38;;;;;;;15.77;8.00;;;;;;;;;;5032026;28;20493;-67
2022/05/08 01:01:08;;;;;;;13.13;7.32;;;;;;;;;;5032850;28;20046;-67
2022/05/08 01:03:37;;;;;;;14.15;7.38;;;;;;;;;;5032649;28;20053;-68
2022/05/08 01:06:09;;;;;;;13.05;7.65;;;;;;;;;;5030415;28;20511;-68
2022/05/08 01:08:38;;;;;;;15.45;8.23;;;;;;;;;;5027427;28;20148;-69
2022/05/08 01:11:07;;;;;;;15.00;8.13;;;;;;;;;;5029439;28;20049;-67
2022/05/08 01:13:37;;;;;;;15.25;8.57;;;;;;;;;;5032842;28;20158;-67
2022/05/08 01:16:08;;;;;;;17.30;9.00;;;;;;;;;;5032396;28;20077;-70
2022/05/08 01:18:43;;;;;;;14.02;7.35;;;;;;;;;;5012555;28;20057;-68
2022/05/08 01:21:12;;;;;;;16.02;8.27;;;;;;;;;;5014369;28;20462;-69
2022/05/08 01:23:41;;;;;;;16.90;8.38;;;;;;;;;;5021295;28;20397;-68
2022/05/08 01:26:10;;;;;;;16.90;8.65;;;;;;;;;;5013097;28;20506;-67
2022/05/08 01:28:38;;;;;;;17.73;9.10;;;;;;;;;;5012058;28;20458;-68
2022/05/08 01:31:06;;;;;;;16.42;8.98;;;;;;;;;;5027505;28;20057;-68
2022/05/08 01:33:35;;;;;;;15.10;7.90;;;;;;;;;;5030663;28;20049;-67
2022/05/08 01:36:06;;;;;;;14.10;7.68;;;;;;;;;;5022806;28;20144;-68
2022/05/08 01:38:34;;;;;;;15.77;8.43;;;;;;;;;;5020299;28;20099;-68
2022/05/08 01:41:08;;;;;;;16.00;8.57;;;;;;;;;;5019755;28;20112;-68
2022/05/08 01:43:36;;;;;;;16.80;8.52;;;;;;;;;;5022280;28;20133;-67
2022/05/08 01:46:09;;;;;;;16.15;9.18;;;;;;;;;;5020613;28;20081;-67
2022/05/08 01:48:36;;;;;;;18.13;9.27;;;;;;;;;;5031907;28;20514;-68
2022/05/08 01:51:08;;;;;;;15.75;8.57;;;;;;;;;;5024794;28;20088;-68
2022/05/08 01:53:36;;;;;;;15.55;8.50;;;;;;;;;;5029995;28;20084;-68
2022/05/08 01:56:09;;;;;;;18.35;9.70;;;;;;;;;;5031987;28;20111;-68
2022/05/08 01:58:37;;;;;;;16.25;8.43;;;;;;;;;;5022704;28;20144;-68
2022/05/08 02:01:06;;;;;;;19.73;9.00;;;;;;;;;;5024806;28;20556;-68
2022/05/08 02:03:34;;;;;;;17.85;9.65;;;;;;;;;;5028534;28;20065;-69
2022/05/08 02:06:06;;;;;;;23.23;10.10;;;;;;;;;;5028055;28;20132;-68
2022/05/08 02:08:34;;;;;;;19.15;9.25;;;;;;;;;;5025070;28;20076;-69
2022/05/08 02:11:06;;;;;;;18.80;9.45;;;;;;;;;;5024615;28;20129;-67
2022/05/08 02:13:36;;;;;;;20.40;10.00;;;;;;;;;;5029551;28;20053;-67
2022/05/08 02:16:07;;;;;;;20.58;10.32;;;;;;;;;;5030668;28;20049;-68
2022/05/08 02:18:36;;;;;;;21.25;10.70;;;;;;;;;;5027800;28;20057;-67
2022/05/08 02:21:07;;;;;;;23.48;11.98;;;;;;;;;;5029778;28;20084;-68
2022/05/08 02:23:35;;;;;;;23.70;11.38;;;;;;;;;;5030387;28;20045;-68
2022/05/08 02:26:07;;;;;;;19.90;10.52;;;;;;;;;;5026871;28;20071;-69
2022/05/08 02:28:36;;;;;;;20.98;11.10;;;;;;;;;;5025210;28;20081;-68
2022/05/08 02:31:08;;;;;;;26.33;12.77;;;;;;;;;;5023340;28;20146;-67
2022/05/08 02:33:36;;;;;;;22.58;11.50;;;;;;;;;;5016628;28;20045;-67
2022/05/08 02:36:07;;;;;;;20.70;11.73;;;;;;;;;;5028163;28;20132;-68
2022/05/08 02:38:38;;;;;;;21.20;10.55;;;;;;;;;;5030707;28;20159;-67
2022/05/08 02:41:09;;;;;;;21.35;10.52;;;;;;;;;;5018690;28;20045;-67
2022/05/08 02:43:39;;;;;;;23.65;10.82;;;;;;;;;;5030622;28;20087;-67
2022/05/08 02:46:07;;;;;;;21.40;11.18;;;;;;;;;;5026667;28;20109;-68
2022/05/08 02:48:35;;;;;;;21.30;10.65;;;;;;;;;;5028494;28;20087;-67
2022/05/08 02:51:07;;;;;;;21.95;10.88;;;;;;;;;;5024293;28;20418;-68
2022/05/08 02:53:36;;;;;;;17.90;9.77;;;;;;;;;;5027378;28;20940;-70
2022/05/08 02:58:54;;;;;;;19.08;10.32;;;;;;;;;;5027996;28;20063;-69
2022/05/08 03:01:22;;;;;;;23.00;11.48;;;;;;;;;;5029930;28;20087;-67
2022/05/08 03:03:50;;;;;;;21.15;10.93;;;;;;;;;;5029383;28;20482;-67
2022/05/08 03:06:19;;;;;;;23.67;11.32;;;;;;;;;;5031015;28;20469;-67
2022/05/08 03:08:47;;;;;;;18.67;9.48;;;;;;;;;;5010348;28;20081;-67
2022/05/08 03:11:29;;;;;;;21.10;10.38;;;;;;;;;;5022910;28;20081;-67
2022/05/08 03:13:59;;;;;;;21.73;10.93;;;;;;;;;;5017783;28;20053;-68
2022/05/08 03:16:28;;;;;;;22.00;10.15;;;;;;;;;;5017762;28;20089;-67
2022/05/08 03:18:56;;;;;;;19.42;9.88;;;;;;;;;;5029063;28;20076;-67
2022/05/08 03:21:25;;;;;;;21.80;10.68;;;;;;;;;;5033350;28;20130;-68
2022/05/08 03:23:53;;;;;;;22.05;11.02;;;;;;;;;;5015655;28;20430;-67
2022/05/08 03:26:22;;;;;;;18.98;10.07;;;;;;;;;;5014895;28;20046;-67
2022/05/08 03:28:51;;;;;;;21.27;10.30;;;;;;;;;;5021144;28;20077;-68
2022/05/08 03:31:21;;;;;;;18.13;9.43;;;;;;;;;;5028414;28;20470;-68
2022/05/08 03:33:50;;;;;;;16.27;9.88;;;;;;;;;;5013530;28;20076;-68
2022/05/08 03:36:18;;;;;;;18.13;9.50;;;;;;;;;;5022053;28;20128;-68
2022/05/08 03:38:48;;;;;;;17.48;9.70;;;;;;;;;;5035573;28;20569;-68
2022/05/08 03:41:16;;;;;;;19.98;10.20;;;;;;;;;;5016215;28;20409;-67
2022/05/08 03:43:46;;;;;;;20.58;10.70;;;;;;;;;;5024026;28;20507;-68
2022/05/08 03:46:14;;;;;;;20.75;10.20;;;;;;;;;;5028350;28;20394;-70
2022/05/08 03:48:44;;;;;;;19.15;9.98;;;;;;;;;;5010341;28;20081;-68
2022/05/08 03:51:13;;;;;;;20.25;10.30;;;;;;;;;;5027511;28;20136;-68
2022/05/08 03:53:41;;;;;;;21.52;10.30;;;;;;;;;;5027635;28;20504;-67
2022/05/08 03:56:09;;;;;;;18.25;9.82;;;;;;;;;;5022971;28;20132;-68
2022/05/08 03:58:38;;;;;;;18.83;10.48;;;;;;;;;;5018530;28;20727;-68
2022/05/08 04:01:09;;;;;;;19.38;9.95;;;;;;;;;;5026983;28;20081;-67
2022/05/08 04:03:38;;;;;;;20.85;9.55;;;;;;;;;;5029474;28;20211;-68
2022/05/08 04:06:10;;;;;;;18.38;9.52;;;;;;;;;;5020967;28;20486;-68
2022/05/08 04:08:39;;;;;;;20.70;10.50;;;;;;;;;;5028367;28;20101;-67
2022/05/08 04:11:07;;;;;;;18.45;10.38;;;;;;;;;;5025066;28;20085;-67
2022/05/08 04:13:35;;;;;;;19.45;10.63;;;;;;;;;;5023729;28;20152;-68
2022/05/08 04:16:21;;;;;;;20.55;10.40;;;;;;;;;;5021014;28;20053;-68
2022/05/08 04:18:51;;;;;;;18.45;9.75;;;;;;;;;;5027759;28;20049;-68
2022/05/08 04:21:20;;;;;;;20.38;9.82;;;;;;;;;;5025747;28;20478;-68
2022/05/08 04:26:35;;;;;;;19.90;9.45;;;;;;;;;;5028288;28;20084;-68
2022/05/08 04:29:05;;;;;;;19.10;10.10;;;;;;;;;;5014684;28;20521;-68
2022/05/08 04:31:33;;;;;;;16.55;9.48;;;;;;;;;;5010770;28;20129;-67
2022/05/08 04:34:02;;;;;;;18.27;9.70;;;;;;;;;;5024078;28;20044;-67
2022/05/08 04:36:32;;;;;;;20.20;10.23;;;;;;;;;;5025247;28;20461;-68
2022/05/08 04:39:00;;;;;;;18.48;9.77;;;;;;;;;;5026599;28;20042;-67
2022/05/08 04:41:29;;;;;;;19.33;10.10;;;;;;;;;;5019372;28;20073;-67
2022/05/08 04:44:00;;;;;;;18.70;10.77;;;;;;;;;;5023499;28;20046;-68
2022/05/08 04:46:29;;;;;;;22.10;10.27;;;;;;;;;;5031335;28;20080;-67
2022/05/08 04:48:57;;;;;;;20.05;10.25;;;;;;;;;;5028254;28;20124;-67
2022/05/08 04:51:26;;;;;;;22.00;11.05;;;;;;;;;;5036257;28;20076;-68
2022/05/08 04:53:55;;;;;;;19.23;10.52;;;;;;;;;;5024157;28;20046;-68
2022/05/08 04:56:24;;;;;;;18.95;10.05;;;;;;;;;;5022659;28;20096;-68
2022/05/08 04:58:52;;;;;;;19.75;10.70;;;;;;;;;;5031762;28;20115;-68
2022/05/08 05:01:21;;;;;;;18.55;9.93;;;;;;;;;;5013246;28;20050;-68
2022/05/08 05:03:50;;;;;;;19.50;10.23;;;;;;;;;;5029971;28;20049;-67
2022/05/08 05:06:24;;;;;;;20.15;10.38;;;;;;;;;;5031644;28;20100;-67
2022/05/08 05:08:53;;;;;;;19.17;10.73;;;;;;;;;;5031948;28;20068;-67
2022/05/08 05:11:22;;;;;;;19.23;10.27;;;;;;;;;;5027938;28;20129;-67
2022/05/08 05:13:51;;;;;;;27.23;12.80;;;;;;;;;;5022614;28;20088;-67
2022/05/08 05:16:19;;;;;;;20.50;10.93;;;;;;;;;;5033040;28;20077;-68
2022/05/08 05:18:47;;;;;;;21.65;11.55;;;;;;;;;;5031371;28;20520;-67
2022/05/08 05:21:16;;;;;;;18.70;10.45;;;;;;;;;;5022517;28;20140;-69
2022/05/08 05:23:44;;;;;;;23.27;11.18;;;;;;;;;;5024163;28;20132;-68
2022/05/08 05:26:12;;;;;;;21.10;11.48;;;;;;;;;;5031410;28;20073;-67
2022/05/08 05:28:43;;;;;;;20.05;10.63;;;;;;;;;;5035254;28;20050;-67
2022/05/08 05:31:12;;;;;;;20.98;11.38;;;;;;;;;;5022491;28;20073;-67
2022/05/08 05:33:40;;;;;;;20.95;11.25;;;;;;;;;;5030198;28;20041;-67
2022/05/08 05:36:09;;;;;;;20.27;10.63;;;;;;;;;;5020019;28;20042;-68
2022/05/08 05:38:37;;;;;;;22.20;11.68;;;;;;;;;;5031167;28;20080;-68
2022/05/08 05:41:05;;;;;;;22.65;11.73;;;;;;;;;;5016410;28;20080;-70
2022/05/08 05:43:34;;;;;;;21.75;11.95;;;;;;;;;;5019787;28;20092;-67
2022/05/08 05:48:53;;;;;;;22.50;11.77;;;;;;;;;;5023738;28;20049;-68
2022/05/08 05:51:21;;;;;;;23.48;12.02;;;;;;;;;;5034095;28;20469;-68
2022/05/08 05:53:49;;;;;;;22.13;11.15;;;;;;;;;;5024303;28;20088;-68
2022/05/08 05:56:18;;;;;;;23.20;12.98;;;;;;;;;;5017848;28;20055;-68
2022/05/08 05:58:46;;;;;;;27.60;11.40;;;;;;;;;;5033315;28;20155;-69
2022/05/08 06:01:17;;;;;;;21.88;11.82;;;;;;;;;;5027139;28;20492;-69
2022/05/08 06:03:45;;;;;;;22.88;12.25;;;;;;;;;;5026412;28;20080;-68
2022/05/08 06:06:14;;;;;;;22.02;12.00;;;;;;;;;;5030937;28;20049;-68
2022/05/08 06:08:43;;;;;;;27.00;13.15;;;;;;;;;;5023804;28;20489;-68
2022/05/08 06:11:11;;;;;;;24.85;12.27;;;;;;;;;;5014128;28;20096;-68
2022/05/08 06:13:39;;;;;;;23.42;13.38;;;;;;;;;;5018813;28;20085;-68
2022/05/08 06:16:08;;;;;;;24.58;12.60;;;;;;;;;;5028362;28;20554;-68
2022/05/08 06:18:37;;;;;;;25.92;13.90;;;;;;;;;;5025104;28;20530;-68
2022/05/08 06:21:08;;;;;;;22.10;11.65;;;;;;;;;;5016752;28;20501;-68
2022/05/08 06:23:37;;;;;;;23.58;13.00;;;;;;;;;;5044222;28;20088;-68
2022/05/08 06:26:08;;;;;;;26.25;12.90;;;;;;;;;;5022222;28;20121;-67
2022/05/08 06:28:36;;;;;;;24.38;12.60;;;;;;;;;;5030906;28;20081;-68
2022/05/08 06:31:07;;;;;;;18.98;11.15;;;;;;;;;;5024619;28;20076;-68
2022/05/08 06:33:37;;;;;;;20.13;11.30;;;;;;;;;;5026650;28;20461;-67
2022/05/08 06:36:08;;;;;;;21.23;11.48;;;;;;;;;;5028962;28;20053;-68
2022/05/08 06:38:37;;;;;;;23.02;12.65;;;;;;;;;;5022756;28;20156;-68
2022/05/08 06:41:08;;;;;;;20.67;11.63;;;;;;;;;;5027534;28;20147;-68
2022/05/08 06:43:40;;;;;;;19.75;10.55;;;;;;;;;;5024133;28;20053;-69
2022/05/08 06:46:08;;;;;;;19.58;11.23;;;;;;;;;;5030643;28;20124;-68
2022/05/08 06:48:38;;;;;;;19.75;11.07;;;;;;;;;;5021514;28;20057;-68
2022/05/08 06:51:06;;;;;;;20.17;11.02;;;;;;;;;;5029265;28;20516;-68
2022/05/08 06:53:35;;;;;;;22.23;10.70;;;;;;;;;;5028078;28;20073;-71
2022/05/08 06:56:06;;;;;;;17.35;9.70;;;;;;;;;;5012620;28;20073;-68
2022/05/08 07:01:34;;;;;;;20.00;10.35;;;;;;;;;;5021479;28;21438;-69
2022/05/08 07:01:34;;;;;;;18.70;11.30;;;;;;;;;;5028697;28;20083;-68
2022/05/08 07:04:04;;;;;;;17.00;9.95;;;;;;;;;;5027214;28;20042;-67
2022/05/08 07:06:33;;;;;;;21.50;10.30;;;;;;;;;;5022334;28;20136;-68
2022/05/08 07:09:13;;;;;;;22.67;10.15;;;;;;;;;;5027801;28;20132;-67
2022/05/08 07:11:44;;;;;;;19.17;10.50;;;;;;;;;;5026278;28;20377;-68
2022/05/08 07:14:13;;;;;;;21.63;10.43;;;;;;;;;;5027994;28;20122;-68
2022/05/08 07:16:42;;;;;;;21.30;11.20;;;;;;;;;;5027322;28;20498;-68
2022/05/08 07:19:12;;;;;;;18.90;10.52;;;;;;;;;;5018125;28;20054;-68
2022/05/08 07:21:40;;;;;;;18.55;10.43;;;;;;;;;;5023659;28;20086;-68
2022/05/08 07:24:09;;;;;;;17.45;10.68;;;;;;;;;;5027317;28;20385;-68
2022/05/08 07:26:38;;;;;;;17.88;10.38;;;;;;;;;;5024765;28;20469;-67
2022/05/08 07:29:06;;;;;;;17.50;10.52;;;;;;;;;;5027263;28;20136;-67
2022/05/08 07:31:35;;;;;;;17.08;9.57;;;;;;;;;;5026323;28;20060;-67
2022/05/08 07:36:50;;;;;;;17.17;9.48;;;;;;;;;;5028239;28;20049;-68
2022/05/08 07:39:19;;;;;;;19.27;9.82;;;;;;;;;;5021360;28;20133;-68
2022/05/08 07:41:47;;;;;;;18.05;10.85;;;;;;;;;;5022250;28;20132;-68
2022/05/08 07:44:15;;;;;;;17.23;9.80;;;;;;;;;;5031140;28;20382;-68
2022/05/08 07:46:43;;;;;;;16.02;10.02;;;;;;;;;;5022188;28;20080;-67
2022/05/08 07:49:12;;;;;;;18.90;10.15;;;;;;;;;;5028797;28;20050;-67
2022/05/08 07:51:40;;;;;;;17.55;10.57;;;;;;;;;;5032060;28;20100;-67
2022/05/08 07:54:10;;;;;;;17.75;10.25;;;;;;;;;;5026619;28;20065;-68
2022/05/08 07:56:38;;;;;;;15.50;9.48;;;;;;;;;;5021811;28;20055;-68
2022/05/08 07:59:08;;;;;;;16.02;9.30;;;;;;;;;;5019979;28;20128;-68
2022/05/08 08:01:36;;;;;;;15.13;9.82;;;;;;;;;;5027541;28;20073;-67
2022/05/08 08:04:18;;;;;;;18.73;9.57;;;;;;;;;;5028687;28;20046;-68
2022/05/08 08:06:46;;;;;;;20.10;9.95;;;;;;;;;;5029325;28;20144;-67
2022/05/08 08:09:16;;;;;;;14.93;9.75;;;;;;;;;;5029493;28;20049;-68
2022/05/08 08:11:45;;;;;;;17.33;9.75;;;;;;;;;;5029773;28;20046;-68
2022/05/08 08:14:14;;;;;;;16.30;10.40;;;;;;;;;;5020983;28;20396;-67
2022/05/08 08:17:03;;;;;;;17.33;8.70;;;;;;;;;;5029073;28;20493;-68
2022/05/08 08:19:31;;;;;;;12.20;8.18;;;;;;;;;;5028091;28;20087;-67
2022/05/08 08:22:00;;;;;;;15.40;8.85;;;;;;;;;;5033857;28;20047;-67
2022/05/08 08:24:30;;;;;;;15.65;8.35;;;;;;;;;;5032290;28;20504;-67
2022/05/08 08:26:59;;;;;;;12.98;8.48;;;;;;;;;;5019825;28;20061;-67
2022/05/08 08:29:28;;;;;;;15.15;8.57;;;;;;;;;;5025489;28;20049;-68
2022/05/08 08:31:57;;;;;;;15.77;9.25;;;;;;;;;;5015227;28;20080;-69
2022/05/08 08:34:26;;;;;;;9.75;7.00;;;;;;;;;;5020300;28;20041;-67
2022/05/08 08:36:54;;;;;;;13.27;7.43;;;;;;;;;;5032236;28;20382;-67
2022/05/08 08:39:23;;;;;;;11.98;7.95;;;;;;;;;;5032804;28;20068;-67
2022/05/08 08:42:02;;;;;;;11.10;7.00;;;;;;;;;;5026211;28;20050;-68
2022/05/08 08:50:05;;;;;;;11.15;7.00;;;;;;;;;;5032085;28;20382;-67
2022/05/08 08:52:34;;;;;;;11.02;7.10;;;;;;;;;;5019708;28;20095;-67
2022/05/08 08:55:02;;;;;;;12.68;7.50;;;;;;;;;;5033025;28;20053;-67
2022/05/08 08:57:32;;;;;;;11.88;7.38;;;;;;;;;;5021371;28;20046;-67
2022/05/08 09:00:01;;;;;;;8.73;6.18;;;;;;;;;;5026814;28;20084;-67
2022/05/08 09:02:30;;;;;;;12.85;6.75;;;;;;;;;;5022069;28;20058;-68
2022/05/08 09:04:59;;;;;;;12.13;6.75;;;;;;;;;;5022593;28;20124;-68
2022/05/08 09:07:38;;;;;;;12.93;7.85;;;;;;;;;;5033083;28;20056;-70
2022/05/08 09:10:08;;;;;;;12.20;7.03;;;;;;;;;;5032319;28;20069;-68
2022/05/08 09:12:38;;;;;;;11.65;6.90;;;;;;;;;;5025685;28;20049;-69
2022/05/08 09:15:23;;;;;;;10.02;6.50;;;;;;;;;;5025712;28;20045;-68
2022/05/08 09:17:53;;;;;;;8.80;6.57;;;;;;;;;;5024441;28;20480;-69
2022/05/08 09:20:30;;;;;;;10.27;6.18;;;;;;;;;;5024812;28;20054;-68
2022/05/08 09:23:02;;;;;;;13.57;6.70;;;;;;;;;;5024079;28;20049;-68
2022/05/08 09:25:46;;;;;;;11.05;7.20;;;;;;;;;;5030330;28;20046;-68
2022/05/08 09:28:41;;;;;;;12.13;6.57;;;;;;;;;;5028880;28;20057;-68
2022/05/08 09:31:10;;;;;;;10.65;6.45;;;;;;;;;;5030003;28;20053;-67
2022/05/08 09:33:40;;;;;;;10.65;6.05;;;;;;;;;;5029475;28;20160;-67
2022/05/08 09:36:09;;;;;;;10.10;6.85;;;;;;;;;;5029595;28;20095;-68
2022/05/08 09:38:42;;;;;;;9.52;6.30;;;;;;;;;;5022086;28;20096;-68
2022/05/08 09:41:11;;;;;;;9.02;5.82;;;;;;;;;;5022225;28;20096;-68
2022/05/08 09:43:41;;;;;;;9.15;6.65;;;;;;;;;;5013977;28;20269;-68
2022/05/08 09:46:10;;;;;;;11.77;5.95;;;;;;;;;;5029020;28;20506;-69
2022/05/08 09:48:39;;;;;;;11.23;6.38;;;;;;;;;;5028182;28;20110;-68
2022/05/08 09:51:08;;;;;;;8.77;5.95;;;;;;;;;;5013745;28;20490;-67
2022/05/08 09:53:38;;;;;;;9.65;6.22;;;;;;;;;;5022125;28;20462;-67
2022/05/08 09:56:07;;;;;;;9.40;6.32;;;;;;;;;;5017104;28;20054;-68
2022/05/08 09:58:36;;;;;;;12.40;6.95;;;;;;;;;;5018862;28;20478;-68
2022/05/08 10:01:09;;;;;;;9.23;6.35;;;;;;;;;;5022511;28;20038;-67
2022/05/08 10:03:38;;;;;;;9.52;6.10;;;;;;;;;;5027366;28;20060;-68
2022/05/08 10:06:07;;;;;;;9.82;6.25;;;;;;;;;;5029548;28;20050;-67
2022/05/08 10:08:38;;;;;;;10.70;6.35;;;;;;;;;;5027066;28;20080;-67
2022/05/08 10:13:58;;;;;;;10.57;6.18;;;;;;;;;;5014780;28;20560;-68
2022/05/08 10:16:46;;;;;;;9.55;6.75;;;;;;;;;;5028182;28;20049;-67
2022/05/08 10:19:33;;;;;;;9.70;6.30;;;;;;;;;;5026964;28;20083;-70
2022/05/08 10:22:06;;;;;;;9.57;6.60;;;;;;;;;;5009945;28;20501;-68
2022/05/08 10:24:36;;;;;;;10.18;5.95;;;;;;;;;;5018114;28;20124;-68
2022/05/08 10:27:11;;;;;;;12.20;6.13;;;;;;;;;;5025852;28;20067;-67
2022/05/08 10:29:40;;;;;;;8.25;5.53;;;;;;;;;;5022520;28;20057;-67
2022/05/08 10:32:11;;;;;;;8.32;5.70;;;;;;;;;;5025411;28;20052;-69
2022/05/08 10:34:40;;;;;;;9.48;5.53;;;;;;;;;;5008688;28;20049;-68
2022/05/08 10:37:28;;;;;;;10.18;6.47;;;;;;;;;;5017533;28;20045;-68
2022/05/08 10:39:57;;;;;;;10.63;5.55;;;;;;;;;;5011167;28;20045;-68
2022/05/08 10:42:46;;;;;;;10.18;5.88;;;;;;;;;;5010855;28;20141;-67
2022/05/08 10:45:33;;;;;;;9.30;6.07;;;;;;;;;;5024862;28;20046;-67
2022/05/08 10:48:05;;;;;;;8.68;5.85;;;;;;;;;;5026184;28;20056;-68
2022/05/08 10:50:34;;;;;;;12.05;6.25;;;;;;;;;;5040036;28;20057;-70
2022/05/08 10:53:03;;;;;;;8.05;5.95;;;;;;;;;;5030030;28;20073;-68
2022/05/08 10:55:31;;;;;;;8.27;5.20;;;;;;;;;;5028190;28;20053;-68
2022/05/08 10:58:00;;;;;;;7.72;5.53;;;;;;;;;;5022277;28;20065;-68
2022/05/08 11:00:29;;;;;;;9.50;6.07;;;;;;;;;;5021625;28;20053;-68
2022/05/08 11:02:59;;;;;;;7.15;4.95;;;;;;;;;;5017498;28;20053;-67
2022/05/08 11:05:31;;;;;;;8.60;5.20;;;;;;;;;;5023621;28;20131;-69
2022/05/08 11:08:01;;;;;;;8.30;5.55;;;;;;;;;;5015280;28;21478;-68
2022/05/08 11:10:31;;;;;;;8.73;5.25;;;;;;;;;;5015264;28;20058;-71
2022/05/08 11:13:01;;;;;;;8.43;5.15;;;;;;;;;;5020212;28;20049;-68
2022/05/08 11:15:30;;;;;;;10.15;5.82;;;;;;;;;;5025934;28;20050;-69
2022/05/08 11:18:03;;;;;;;7.05;5.20;;;;;;;;;;5023269;28;20452;-70
2022/05/08 11:20:36;;;;;;;6.75;4.60;;;;;;;;;;5016361;28;20489;-69
2022/05/08 11:23:05;;;;;;;8.48;5.35;;;;;;;;;;5026763;28;20057;-69
2022/05/08 11:25:34;;;;;;;7.30;5.10;;;;;;;;;;5013318;28;20053;-69
2022/05/08 11:28:02;;;;;;;9.60;5.57;;;;;;;;;;5024640;28;20064;-68
2022/05/08 11:30:36;;;;;;;8.80;4.90;;;;;;;;;;5022574;28;20064;-69
2022/05/08 11:36:06;;;;;;;7.15;5.28;;;;;;;;;;5025680;28;20045;-67
2022/05/08 11:38:44;;;;;;;9.93;6.10;;;;;;;;;;5019217;28;20060;-68
2022/05/08 11:41:13;;;;;;;6.45;5.10;;;;;;;;;;5025420;28;20105;-68
2022/05/08 11:43:43;;;;;;;8.65;5.82;;;;;;;;;;5027451;28;20096;-69
2022/05/08 11:46:15;;;;;;;9.00;5.43;;;;;;;;;;5027085;28;20057;-68
2022/05/08 11:48:50;;;;;;;13.38;5.88;;;;;;;;;;5026698;28;20100;-68
2022/05/08 11:51:21;;;;;;;7.68;5.18;;;;;;;;;;5029692;28;20424;-68
2022/05/08 11:53:50;;;;;;;8.75;4.88;;;;;;;;;;5023312;28;20054;-68
2022/05/08 11:56:23;;;;;;;7.45;5.20;;;;;;;;;;5012652;28;20129;-68
2022/05/08 11:58:52;;;;;;;8.50;5.10;;;;;;;;;;5027554;28;20041;-69
2022/05/08 12:01:24;;;;;;;9.25;4.82;;;;;;;;;;5016611;28;20054;-68
2022/05/08 12:03:53;;;;;;;9.07;5.47;;;;;;;;;;5022848;28;20041;-68
2022/05/08 12:06:23;;;;;;;7.32;4.72;;;;;;;;;;5022427;28;20405;-69
2022/05/08 12:08:54;;;;;;;8.05;5.28;;;;;;;;;;5029349;28;20049;-68
2022/05/08 12:11:30;;;;;;;7.82;5.43;;;;;;;;;;5025438;28;20059;-68
2022/05/08 12:14:02;;;;;;;7.47;5.78;;;;;;;;;;5025316;28;20053;-69
2022/05/08 12:16:32;;;;;;;6.18;4.68;;;;;;;;;;5025780;28;20128;-68
2022/05/08 12:19:15;;;;;;;7.10;4.45;;;;;;;;;;5020416;28;20111;-68
2022/05/08 12:21:47;;;;;;;7.35;4.68;;;;;;;;;;5027609;28;20049;-68
2022/05/08 12:24:17;;;;;;;7.75;4.95;;;;;;;;;;5023678;28;20045;-68
2022/05/08 12:26:46;;;;;;;7.88;5.45;;;;;;;;;;5026922;28;20057;-69
2022/05/08 12:29:18;;;;;;;7.95;5.25;;;;;;;;;;5020043;28;20366;-69
2022/05/08 12:31:46;;;;;;;7.18;4.80;;;;;;;;;;5020297;28;20151;-69
2022/05/08 12:34:15;;;;;;;8.98;5.25;;;;;;;;;;5019481;28;20045;-68
2022/05/08 12:36:43;;;;;;;7.07;5.07;;;;;;;;;;5025507;28;20049;-68
2022/05/08 12:39:13;;;;;;;9.00;4.90;;;;;;;;;;5018381;28;20818;-68
2022/05/08 12:41:43;;;;;;;7.32;4.53;;;;;;;;;;5018710;28;20069;-71
2022/05/08 12:44:12;;;;;;;7.47;5.25;;;;;;;;;;5024377;28;20516;-68
2022/05/08 12:46:41;;;;;;;6.93;4.45;;;;;;;;;;5019665;28;20547;-71
2022/05/08 12:49:12;;;;;;;8.45;4.55;;;;;;;;;;5020348;28;20061;-68
2022/05/08 12:51:40;;;;;;;6.18;4.50;;;;;;;;;;5020545;28;20045;-71
2022/05/08 12:54:09;;;;;;;6.68;4.03;;;;;;;;;;5019739;28;20041;-68
2022/05/08 12:56:40;;;;;;;7.30;4.57;;;;;;;;;;5016442;28;20061;-68
2022/05/08 13:01:54;;;;;;;6.47;3.97;;;;;;;;;;5016512;28;20066;-69
2022/05/08 13:04:24;;;;;;;6.57;4.50;;;;;;;;;;5019121;28;20572;-67
2022/05/08 13:06:52;;;;;;;7.18;3.88;;;;;;;;;;5023380;28;20525;-68
2022/05/08 13:09:21;;;;;;;6.97;4.20;;;;;;;;;;5019566;28;20056;-70
2022/05/08 13:11:51;;;;;;;7.28;4.68;;;;;;;;;;5019582;28;20055;-70
2022/05/08 13:14:20;;;;;;;5.55;4.10;;;;;;;;;;5024836;28;20103;-70
2022/05/08 13:16:49;;;;;;;7.47;4.80;;;;;;;;;;5021872;28;20049;-69
2022/05/08 13:19:18;;;;;;;6.82;3.80;;;;;;;;;;5019410;28;20049;-68
2022/05/08 13:21:46;;;;;;;7.63;4.53;;;;;;;;;;5022093;28;20077;-70
2022/05/08 13:24:16;;;;;;;7.65;4.65;;;;;;;;;;5021041;28;20072;-69
2022/05/08 13:26:44;;;;;;;5.45;4.38;;;;;;;;;;5019048;28;20124;-68
2022/05/08 13:29:14;;;;;;;8.23;4.63;;;;;;;;;;5017808;28;20520;-68
2022/05/08 13:31:43;;;;;;;6.10;4.10;;;;;;;;;;5018267;28;20053;-68
2022/05/08 13:34:13;;;;;;;7.07;4.65;;;;;;;;;;5024593;28;20132;-69
2022/05/08 13:36:41;;;;;;;7.20;4.65;;;;;;;;;;5019528;28;20430;-69
2022/05/08 13:39:10;;;;;;;7.35;4.30;;;;;;;;;;5017901;28;20048;-68
2022/05/08 13:41:38;;;;;;;6.43;4.15;;;;;;;;;;5017637;28;20061;-68
2022/05/08 13:44:07;;;;;;;5.72;4.25;;;;;;;;;;5022790;28;20076;-69
2022/05/08 13:46:38;;;;;;;5.97;4.55;;;;;;;;;;5014559;28;20099;-68
2022/05/08 13:49:07;;;;;;;5.82;4.18;;;;;;;;;;5016819;28;20048;-68
2022/05/08 13:51:36;;;;;;;6.18;4.50;;;;;;;;;;5019044;28;20059;-69
2022/05/08 13:54:07;;;;;;;6.38;4.30;;;;;;;;;;5016507;28;20041;-69
2022/05/08 13:56:41;;;;;;;7.10;4.85;;;;;;;;;;5018610;28;20050;-69
2022/05/08 13:59:10;;;;;;;5.13;4.05;;;;;;;;;;5022055;28;20045;-70
2022/05/08 14:01:41;;;;;;;6.63;4.78;;;;;;;;;;5019746;28;20043;-68
2022/05/08 14:04:10;;;;;;;6.30;4.55;;;;;;;;;;5020041;28;20052;-70
2022/05/08 14:06:39;;;;;;;7.75;4.53;;;;;;;;;;5019223;28;20686;-67
2022/05/08 14:09:08;;;;;;;6.45;4.35;;;;;;;;;;5018466;28;20414;-67
2022/05/08 14:11:37;;;;;;;5.70;4.40;;;;;;;;;;5019442;28;20042;-69
2022/05/08 14:14:06;;;;;;;7.10;4.75;;;;;;;;;;5018819;28;20045;-67
2022/05/08 14:16:34;;;;;;;7.35;4.25;;;;;;;;;;5019927;28;20115;-69
2022/05/08 14:19:04;;;;;;;6.15;4.55;;;;;;;;;;5017049;28;20068;-67
2022/05/08 14:21:33;;;;;;;6.82;4.93;;;;;;;;;;5020959;28;20056;-67
2022/05/08 14:24:01;;;;;;;7.82;5.10;;;;;;;;;;5021627;28;20490;-66
2022/05/08 14:26:30;;;;;;;7.80;5.18;;;;;;;;;;5024093;28;20052;-66
2022/05/08 14:28:58;;;;;;;7.00;4.70;;;;;;;;;;5016863;28;20060;-66
2022/05/08 14:37:01;;;;;;;6.88;4.78;;;;;;;;;;5026244;28;20052;-67
2022/05/08 14:39:29;;;;;;;7.53;5.00;;;;;;;;;;5009257;28;20045;-67
2022/05/08 14:41:58;;;;;;;6.45;4.63;;;;;;;;;;5024218;28;20064;-66
2022/05/08 14:44:27;;;;;;;7.50;4.90;;;;;;;;;;5018258;28;20141;-67
2022/05/08 14:46:57;;;;;;;8.80;5.28;;;;;;;;;;5026739;28;20183;-65
2022/05/08 14:49:27;;;;;;;7.05;4.55;;;;;;;;;;5025783;28;20140;-66
2022/05/08 14:51:56;;;;;;;7.70;4.53;;;;;;;;;;5020812;28;20086;-66
2022/05/08 14:54:25;;;;;;;6.20;4.57;;;;;;;;;;5020510;28;20061;-66
2022/05/08 14:56:54;;;;;;;8.38;4.63;;;;;;;;;;5024818;28;20060;-66
2022/05/08 14:59:23;;;;;;;6.68;4.47;;;;;;;;;;5021734;28;20049;-66
2022/05/08 15:01:52;;;;;;;6.50;4.78;;;;;;;;;;5018678;28;20053;-66
2022/05/08 15:04:20;;;;;;;7.32;4.63;;;;;;;;;;5021476;28;20045;-65
2022/05/08 15:06:50;;;;;;;6.38;4.38;;;;;;;;;;5027592;28;20049;-66
2022/05/08 15:09:19;;;;;;;5.90;4.40;;;;;;;;;;5026565;28;20051;-66
2022/05/08 15:11:47;;;;;;;7.65;4.60;;;;;;;;;;5023884;28;20421;-65
2022/05/08 15:14:17;;;;;;;7.88;4.60;;;;;;;;;;5027378;28;20222;-65
2022/05/08 15:16:46;;;;;;;7.38;4.88;;;;;;;;;;5024747;28;20461;-65
2022/05/08 15:19:14;;;;;;;7.75;5.05;;;;;;;;;;5028541;28;20061;-65